createdAt,value
2022-12-04T00:02:41.906Z,100.00
2022-12-04T00:05:44.897Z,100.00
2022-12-04T00:08:48.480Z,100.00
2022-12-04T00:11:51.720Z,100.00
2022-12-04T00:18:18.217Z,100.00
2022-12-04T00:21:21.394Z,100.00
2022-12-04T00:24:26.199Z,100.00
2022-12-04T00:27:29.355Z,100.00
2022-12-04T00:30:32.909Z,100.00
2022-12-04T00:33:36.527Z,100.00
2022-12-04T00:36:42.451Z,100.00
2022-12-04T00:39:45.300Z,100.00
2022-12-04T00:42:50.502Z,100.00
2022-12-04T00:45:53.476Z,100.00
2022-12-04T00:49:02.826Z,100.00
2022-12-04T00:52:06.053Z,100.00
2022-12-04T00:55:09.751Z,100.00
2022-12-04T00:58:12.577Z,100.00
2022-12-04T01:01:20.276Z,100.00
2022-12-04T01:04:29.426Z,100.00
2022-12-04T01:07:32.448Z,100.00
2022-12-04T01:10:35.750Z,100.00
2022-12-04T01:13:39.361Z,100.00
2022-12-04T01:16:43.727Z,100.00
2022-12-04T01:19:59.008Z,100.00
2022-12-04T01:23:02.299Z,100.00
2022-12-04T01:26:05.342Z,100.00
2022-12-04T01:29:08.782Z,100.00
2022-12-04T01:32:12.035Z,100.00
2022-12-04T01:35:15.420Z,100.00
2022-12-04T01:38:18.349Z,100.00
2022-12-04T01:41:27.341Z,100.00
2022-12-04T01:44:33.169Z,100.00
2022-12-04T01:47:36.037Z,100.00
2022-12-04T01:50:38.965Z,100.00
2022-12-04T01:53:43.766Z,100.00
2022-12-04T01:56:51.901Z,100.00
2022-12-04T02:00:02.631Z,100.00
2022-12-04T02:03:05.444Z,100.00
2022-12-04T02:06:08.681Z,100.00
2022-12-04T02:09:11.659Z,100.00
2022-12-04T02:12:44.405Z,100.00
2022-12-04T02:16:02.247Z,100.00
2022-12-04T02:19:26.930Z,100.00
2022-12-04T02:22:51.562Z,100.00
2022-12-04T02:26:12.912Z,100.00
2022-12-04T02:29:37.152Z,100.00
2022-12-04T02:32:44.153Z,100.00
2022-12-04T02:36:05.848Z,100.00
2022-12-04T02:39:15.383Z,100.00
2022-12-04T02:42:33.070Z,100.00
2022-12-04T02:45:41.076Z,100.00
2022-12-04T02:48:47.017Z,100.00
2022-12-04T02:51:50.716Z,100.00
2022-12-04T02:54:58.222Z,100.00
2022-12-04T02:58:06.128Z,100.00
2022-12-04T03:01:20.789Z,100.00
2022-12-04T03:04:26.476Z,100.00
2022-12-04T03:07:40.688Z,100.00
2022-12-04T03:10:50.408Z,100.00
2022-12-04T03:14:23.740Z,100.00
2022-12-04T03:17:34.414Z,100.00
2022-12-04T03:20:38.713Z,100.00
2022-12-04T03:23:50.392Z,100.00
2022-12-04T03:26:59.010Z,100.00
2022-12-04T03:30:14.834Z,100.00
2022-12-04T03:33:21.930Z,100.00
2022-12-04T03:36:38.238Z,100.00
2022-12-04T03:39:44.120Z,100.00
2022-12-04T03:42:51.987Z,100.00
2022-12-04T03:46:10.758Z,100.00
2022-12-04T03:49:24.363Z,100.00
2022-12-04T03:52:50.018Z,100.00
2022-12-04T03:56:09.229Z,100.00
2022-12-04T03:59:24.737Z,100.00
2022-12-04T04:02:33.933Z,100.00
2022-12-04T04:05:37.437Z,100.00
2022-12-04T04:08:46.301Z,100.00
2022-12-04T04:12:07.299Z,100.00
2022-12-04T04:15:34.626Z,100.00
2022-12-04T04:18:57.479Z,100.00
2022-12-04T04:22:22.351Z,100.00
2022-12-04T04:25:26.531Z,100.00
2022-12-04T04:28:40.885Z,100.00
2022-12-04T04:31:53.493Z,100.00
2022-12-04T04:34:56.414Z,100.00
2022-12-04T04:38:14.418Z,100.00
2022-12-04T04:41:25.137Z,100.00
2022-12-04T04:44:54.706Z,100.00
2022-12-04T04:48:03.095Z,100.00
2022-12-04T04:51:09.104Z,100.00
2022-12-04T04:54:14.368Z,100.00
2022-12-04T04:57:32.321Z,100.00
2022-12-04T05:00:35.191Z,100.00
2022-12-04T05:03:47.360Z,100.00
2022-12-04T05:06:51.644Z,100.00
2022-12-04T05:09:54.837Z,100.00
2022-12-04T05:12:57.908Z,100.00
2022-12-04T05:16:04.058Z,100.00
2022-12-04T05:19:44.972Z,100.00
2022-12-04T05:22:47.949Z,100.00
2022-12-04T05:26:00.889Z,100.00
2022-12-04T05:29:04.360Z,100.00
2022-12-04T05:32:07.391Z,100.00
2022-12-04T05:35:13.404Z,100.00
2022-12-04T05:38:16.284Z,100.00
2022-12-04T05:41:19.199Z,100.00
2022-12-04T05:44:23.743Z,100.00
2022-12-04T05:47:26.606Z,100.00
2022-12-04T05:50:29.754Z,100.00
2022-12-04T05:53:35.583Z,100.00
2022-12-04T05:56:38.718Z,100.00
2022-12-04T05:59:41.673Z,100.00
2022-12-04T06:02:44.530Z,100.00
2022-12-04T06:05:47.627Z,100.00
2022-12-04T06:08:52.954Z,100.00
2022-12-04T06:11:58.572Z,100.00
2022-12-04T06:15:01.491Z,100.00
2022-12-04T06:18:04.455Z,100.00
2022-12-04T06:21:07.392Z,100.00
2022-12-04T06:24:15.421Z,100.00
2022-12-04T06:27:33.522Z,100.00
2022-12-04T06:30:36.470Z,100.00
2022-12-04T06:33:39.894Z,100.00
2022-12-04T06:36:43.024Z,100.00
2022-12-04T06:39:46.130Z,100.00
2022-12-04T06:42:48.884Z,100.00
2022-12-04T06:46:02.714Z,100.00
2022-12-04T06:49:05.566Z,100.00
2022-12-04T06:52:08.511Z,100.00
2022-12-04T06:55:11.316Z,100.00
2022-12-04T06:58:14.216Z,100.00
2022-12-04T07:01:20.266Z,100.00
2022-12-04T07:04:23.708Z,100.00
2022-12-04T07:07:26.818Z,100.00
2022-12-04T07:10:29.928Z,100.00
2022-12-04T07:13:32.804Z,100.00
2022-12-04T07:16:40.792Z,100.00
2022-12-04T07:19:44.248Z,100.00
2022-12-04T07:22:47.219Z,100.00
2022-12-04T07:25:50.164Z,100.00
2022-12-04T07:28:54.434Z,100.00
2022-12-04T07:31:57.612Z,100.00
2022-12-04T07:35:00.595Z,100.00
2022-12-04T07:38:03.344Z,100.00
2022-12-04T07:41:07.341Z,100.00
2022-12-04T07:44:10.204Z,100.00
2022-12-04T07:47:13.593Z,100.00
2022-12-04T07:50:16.822Z,100.00
2022-12-04T07:53:19.730Z,100.00
2022-12-04T07:56:22.545Z,100.00
2022-12-04T07:59:25.684Z,100.00
2022-12-04T08:02:28.696Z,100.00
2022-12-04T08:05:32.335Z,100.00
2022-12-04T08:08:36.177Z,100.00
2022-12-04T08:11:39.510Z,100.00
2022-12-04T08:14:42.309Z,100.00
2022-12-04T08:17:45.573Z,100.00
2022-12-04T08:20:48.378Z,100.00
2022-12-04T08:23:52.640Z,100.00
2022-12-04T08:26:55.428Z,100.00
2022-12-04T08:29:58.472Z,100.00
2022-12-04T08:33:01.734Z,100.00
2022-12-04T08:36:13.764Z,100.00
2022-12-04T08:39:16.606Z,100.00
2022-12-04T08:42:19.594Z,100.00
2022-12-04T08:45:22.493Z,100.00
2022-12-04T08:48:25.844Z,100.00
2022-12-04T08:51:30.628Z,100.00
2022-12-04T08:54:36.255Z,100.00
2022-12-04T08:57:39.281Z,100.00
2022-12-04T09:00:42.650Z,100.00
2022-12-04T09:03:45.587Z,100.00
2022-12-04T09:06:48.593Z,100.00
2022-12-04T09:09:51.531Z,100.00
2022-12-04T09:12:54.813Z,100.00
2022-12-04T09:15:57.922Z,100.00
2022-12-04T09:19:00.903Z,100.00
2022-12-04T09:22:04.497Z,100.00
2022-12-04T09:25:08.091Z,100.00
2022-12-04T09:28:11.116Z,100.00
2022-12-04T09:31:16.287Z,100.00
2022-12-04T09:34:19.678Z,100.00
2022-12-04T09:37:23.021Z,100.00
2022-12-04T09:40:33.732Z,100.00
2022-12-04T09:44:03.642Z,100.00
2022-12-04T09:47:20.632Z,100.00
2022-12-04T09:50:27.656Z,100.00
2022-12-04T09:53:43.059Z,100.00
2022-12-04T09:56:53.170Z,100.00
2022-12-04T09:59:56.827Z,100.00
2022-12-04T10:03:06.266Z,99.34
2022-12-04T10:06:15.173Z,98.81
2022-12-04T10:09:56.007Z,99.19
2022-12-04T10:13:47.532Z,97.98
2022-12-04T10:17:17.977Z,97.84
2022-12-04T10:20:30.100Z,95.54
2022-12-04T10:23:45.404Z,94.57
2022-12-04T10:26:49.382Z,93.18
2022-12-04T10:29:56.911Z,93.58
2022-12-04T10:33:20.103Z,93.51
2022-12-04T10:36:25.888Z,92.89
2022-12-04T10:39:45.398Z,91.91
2022-12-04T10:42:54.454Z,92.29
2022-12-04T10:45:57.404Z,92.30
2022-12-04T10:49:07.279Z,91.58
2022-12-04T10:52:12.641Z,92.43
2022-12-04T10:55:15.766Z,92.43
2022-12-04T10:58:20.766Z,91.64
2022-12-04T11:01:24.149Z,92.73
2022-12-04T11:04:29.134Z,91.85
2022-12-04T11:07:37.633Z,91.82
2022-12-04T11:10:43.513Z,92.87
2022-12-04T11:13:46.482Z,92.25
2022-12-04T11:17:07.201Z,92.10
2022-12-04T11:20:25.078Z,92.73
2022-12-04T11:23:32.470Z,91.46
2022-12-04T11:26:37.848Z,91.00
2022-12-04T11:29:45.435Z,90.45
2022-12-04T11:32:48.538Z,90.84
2022-12-04T11:35:54.578Z,91.64
2022-12-04T11:39:15.998Z,90.71
2022-12-04T11:42:18.939Z,90.83
2022-12-04T11:45:23.769Z,90.70
2022-12-04T11:48:27.605Z,91.52
2022-12-04T11:51:53.829Z,90.71
2022-12-04T11:55:11.149Z,91.63
2022-12-04T11:58:37.172Z,92.28
2022-12-04T12:01:48.666Z,91.58
2022-12-04T12:05:24.630Z,92.52
2022-12-04T12:08:46.673Z,92.09
2022-12-04T12:11:57.659Z,92.93
2022-12-04T12:15:03.587Z,93.23
2022-12-04T12:18:33.346Z,91.97
2022-12-04T12:21:50.154Z,93.24
2022-12-04T12:25:20.108Z,93.40
2022-12-04T12:28:51.931Z,94.22
2022-12-04T12:32:29.034Z,93.93
2022-12-04T12:35:40.482Z,93.91
2022-12-04T12:38:51.767Z,93.41
2022-12-04T12:41:57.282Z,93.47
2022-12-04T12:45:07.443Z,93.85
2022-12-04T12:48:19.784Z,94.84
2022-12-04T12:51:48.565Z,93.94
2022-12-04T12:54:59.605Z,94.40
2022-12-04T12:58:12.310Z,94.79
2022-12-04T13:01:37.271Z,95.23
2022-12-04T13:04:50.545Z,95.75
2022-12-04T13:08:15.863Z,95.24
2022-12-04T13:11:21.395Z,95.82
2022-12-04T13:14:24.540Z,95.38
2022-12-04T13:17:37.743Z,95.57
2022-12-04T13:20:49.585Z,95.98
2022-12-04T13:24:16.039Z,95.93
2022-12-04T13:27:50.620Z,96.06
2022-12-04T13:31:02.707Z,96.76
2022-12-04T13:34:11.384Z,96.98
2022-12-04T13:37:35.845Z,97.07
2022-12-04T13:40:41.640Z,96.77
2022-12-04T13:43:45.352Z,97.80
2022-12-04T13:46:54.145Z,97.17
2022-12-04T13:50:30.931Z,97.54
2022-12-04T13:53:37.837Z,97.39
2022-12-04T13:56:42.951Z,97.61
2022-12-04T13:59:46.525Z,97.35
2022-12-04T14:02:55.394Z,97.58
2022-12-04T14:06:00.357Z,97.71
2022-12-04T14:09:17.790Z,97.65
2022-12-04T14:12:26.917Z,97.59
2022-12-04T14:15:32.429Z,97.65
2022-12-04T14:18:35.438Z,97.97
2022-12-04T14:21:40.422Z,98.09
2022-12-04T14:24:43.258Z,98.63
2022-12-04T14:27:52.062Z,98.43
2022-12-04T14:31:15.202Z,98.72
2022-12-04T14:34:29.542Z,98.84
2022-12-04T14:37:37.234Z,99.03
2022-12-04T14:40:45.648Z,99.41
2022-12-04T14:43:52.065Z,99.70
2022-12-04T14:46:59.293Z,99.84
2022-12-04T14:50:28.734Z,99.90
2022-12-04T14:53:49.250Z,99.37
2022-12-04T14:57:20.505Z,99.75
2022-12-04T15:00:26.787Z,99.25
2022-12-04T15:03:32.493Z,99.67
2022-12-04T15:06:36.301Z,99.70
2022-12-04T15:09:58.236Z,99.60
2022-12-04T15:13:01.154Z,99.91
2022-12-04T15:16:11.537Z,100.00
2022-12-04T15:19:19.145Z,100.00
2022-12-04T15:22:28.083Z,100.00
2022-12-04T15:25:44.719Z,100.00
2022-12-04T15:28:55.027Z,100.00
2022-12-04T15:32:03.189Z,100.00
2022-12-04T15:35:13.590Z,100.00
2022-12-04T15:38:18.749Z,100.00
2022-12-04T15:41:30.954Z,100.00
2022-12-04T15:44:35.707Z,100.00
2022-12-04T15:47:41.584Z,100.00
2022-12-04T15:50:44.744Z,100.00
2022-12-04T15:53:48.517Z,100.00
2022-12-04T15:57:07.051Z,100.00
2022-12-04T16:00:32.937Z,100.00
2022-12-04T16:03:42.443Z,100.00
2022-12-04T16:06:49.949Z,100.00
2022-12-04T16:10:02.628Z,100.00
2022-12-04T16:13:31.389Z,100.00
2022-12-04T16:16:37.785Z,100.00
2022-12-04T16:19:42.097Z,100.00
2022-12-04T16:22:45.791Z,100.00
2022-12-04T16:25:53.360Z,100.00
2022-12-04T16:28:57.193Z,100.00
2022-12-04T16:32:12.986Z,100.00
2022-12-04T16:35:17.701Z,100.00
2022-12-04T16:38:20.902Z,100.00
2022-12-04T16:41:24.498Z,100.00
2022-12-04T16:44:27.819Z,100.00
2022-12-04T16:47:30.938Z,100.00
2022-12-04T16:50:34.054Z,100.00
2022-12-04T16:53:37.248Z,100.00
2022-12-04T16:56:40.604Z,100.00
2022-12-04T16:59:46.810Z,100.00
2022-12-04T17:02:50.217Z,100.00
2022-12-04T17:05:53.188Z,100.00
2022-12-04T17:08:56.310Z,100.00
2022-12-04T17:11:59.292Z,100.00
2022-12-04T17:15:10.885Z,100.00
2022-12-04T17:18:20.793Z,100.00
2022-12-04T17:21:24.551Z,100.00
2022-12-04T17:24:27.974Z,100.00
2022-12-04T17:27:32.217Z,100.00
2022-12-04T17:30:36.458Z,100.00
2022-12-04T17:33:39.542Z,100.00
2022-12-04T17:36:43.202Z,100.00
2022-12-04T17:39:46.769Z,100.00
2022-12-04T17:42:49.781Z,100.00
2022-12-04T17:45:52.877Z,100.00
2022-12-04T17:48:57.180Z,100.00
2022-12-04T17:52:10.295Z,100.00
2022-12-04T17:55:13.487Z,100.00
2022-12-04T17:58:16.753Z,100.00
2022-12-04T18:01:25.106Z,100.00
2022-12-04T18:04:28.300Z,100.00
2022-12-04T18:07:31.810Z,100.00
2022-12-04T18:10:35.382Z,100.00
2022-12-04T18:13:41.878Z,100.00
2022-12-04T18:16:53.258Z,100.00
2022-12-04T18:20:02.651Z,100.00
2022-12-04T18:23:07.729Z,100.00
2022-12-04T18:26:12.377Z,100.00
2022-12-04T18:29:19.300Z,100.00
2022-12-04T18:32:22.406Z,100.00
2022-12-04T18:35:28.274Z,100.00
2022-12-04T18:38:32.407Z,100.00
2022-12-04T18:41:36.836Z,100.00
2022-12-04T18:44:41.086Z,100.00
2022-12-04T18:47:44.148Z,100.00
2022-12-04T18:50:47.313Z,100.00
2022-12-04T18:53:53.721Z,100.00
2022-12-04T18:56:57.669Z,100.00
2022-12-04T19:00:03.894Z,100.00
2022-12-04T19:03:15.416Z,100.00
2022-12-04T19:06:33.933Z,100.00
2022-12-04T19:10:10.418Z,100.00
2022-12-04T19:13:12.616Z,100.00
2022-12-04T19:16:17.926Z,100.00
2022-12-04T19:19:27.484Z,100.00
2022-12-04T19:22:36.923Z,100.00
2022-12-04T19:25:41.275Z,100.00
2022-12-04T19:28:44.662Z,100.00
2022-12-04T19:31:48.038Z,100.00
2022-12-04T19:34:54.002Z,100.00
2022-12-04T19:38:01.125Z,100.00
2022-12-04T19:41:13.727Z,100.00
2022-12-04T19:47:46.384Z,100.00
2022-12-04T19:50:50.555Z,100.00
2022-12-04T19:53:55.732Z,100.00
2022-12-04T19:57:01.116Z,100.00
2022-12-04T20:00:06.102Z,100.00
2022-12-04T20:03:10.535Z,100.00
2022-12-04T20:06:16.864Z,100.00
2022-12-04T20:09:22.123Z,100.00
2022-12-04T20:12:26.471Z,100.00
2022-12-04T20:15:29.763Z,100.00
2022-12-04T20:18:33.551Z,100.00
2022-12-04T20:21:36.753Z,100.00
2022-12-04T20:24:39.942Z,100.00
2022-12-04T20:27:44.678Z,100.00
2022-12-04T20:30:50.076Z,100.00
2022-12-04T20:33:54.754Z,100.00
2022-12-04T20:36:59.227Z,100.00
2022-12-04T20:40:07.795Z,100.00
2022-12-04T20:43:13.810Z,100.00
2022-12-04T20:46:24.712Z,100.00
2022-12-04T20:49:28.000Z,100.00
2022-12-04T20:52:31.990Z,100.00
2022-12-04T20:55:39.650Z,100.00
2022-12-04T20:58:43.904Z,100.00
2022-12-04T21:01:49.959Z,100.00
2022-12-04T21:04:53.048Z,100.00
2022-12-04T21:07:55.943Z,100.00
2022-12-04T21:10:59.132Z,100.00
2022-12-04T21:14:22.138Z,100.00
2022-12-04T21:17:25.032Z,100.00
2022-12-04T21:20:29.626Z,100.00
2022-12-04T21:23:32.544Z,100.00
2022-12-04T21:26:35.832Z,100.00
2022-12-04T21:29:39.765Z,100.00
2022-12-04T21:32:45.654Z,100.00
2022-12-04T21:35:48.538Z,100.00
2022-12-04T21:38:51.794Z,100.00
2022-12-04T21:42:13.294Z,100.00
2022-12-04T21:45:16.100Z,100.00
2022-12-04T21:48:22.433Z,100.00
2022-12-04T21:51:48.703Z,100.00
2022-12-04T21:54:52.618Z,100.00
2022-12-04T21:57:55.837Z,100.00
2022-12-04T22:00:58.692Z,100.00
2022-12-04T22:04:01.548Z,100.00
2022-12-04T22:07:04.449Z,100.00
2022-12-04T22:10:10.820Z,100.00
2022-12-04T22:13:14.164Z,100.00
2022-12-04T22:16:19.596Z,100.00
2022-12-04T22:19:22.975Z,100.00
2022-12-04T22:22:25.875Z,100.00
2022-12-04T22:25:32.228Z,100.00
2022-12-04T22:28:35.489Z,100.00
2022-12-04T22:31:38.471Z,100.00
2022-12-04T22:34:47.436Z,100.00
2022-12-04T22:37:50.234Z,100.00
2022-12-04T22:40:53.228Z,100.00
2022-12-04T22:43:56.130Z,100.00
2022-12-04T22:47:01.921Z,100.00
2022-12-04T22:50:06.464Z,100.00
2022-12-04T22:53:09.360Z,100.00
2022-12-04T22:56:14.977Z,100.00
2022-12-04T22:59:17.856Z,100.00
2022-12-04T23:02:24.050Z,100.00
2022-12-04T23:05:27.144Z,100.00
2022-12-04T23:08:30.284Z,100.00
2022-12-04T23:11:33.638Z,100.00
2022-12-04T23:14:37.142Z,100.00
2022-12-04T23:17:40.003Z,100.00
2022-12-04T23:20:42.969Z,100.00
2022-12-04T23:23:46.925Z,100.00
2022-12-04T23:26:49.743Z,100.00
2022-12-04T23:30:04.532Z,100.00
2022-12-04T23:33:07.520Z,100.00
2022-12-04T23:36:11.978Z,100.00
2022-12-04T23:39:14.859Z,100.00
2022-12-04T23:42:17.826Z,100.00
2022-12-04T23:45:20.655Z,100.00
2022-12-04T23:48:24.619Z,100.00
2022-12-04T23:51:28.190Z,100.00
2022-12-04T23:54:35.210Z,100.00
2022-12-04T23:57:37.951Z,100.00
